Braxton, Mississippi
Current Conditions -  °F | °C
As of 3:54 PM on Sunday 25 Jan 2015 (Local Time) from KJAN Reporting Station
Scattered Clouds Scattered Clouds  
Wind Chill: 64°   Ceiling: Unl
Heat Index: 64°   Visibility: 10mi
Dew Point: 39°   Wind: 14mph
Humidity: 40%   Direction: 260°W
Pressure: 29.8"   Gusts: 30mph
Location:  32.03°N, 89.97°W
Report Text: KJAN 252154Z 26012G26KT 10SM SCT065 18/04 A2980 RMK AO2 PK WND 27026/2147 SLP090 T01780039
Loading
Personal Weather Stations






























Interactive Weather Map New forecast layout! Learn more

10-Day Weather Forecast

Advertisements
Track Severe Weather on mobile